createdAt,value
2022-08-25T00:00:10.306Z,98688.59
2022-08-25T00:02:37.733Z,98683.47
2022-08-25T00:05:05.674Z,98688.94
2022-08-25T00:07:33.607Z,98685.94
2022-08-25T00:10:00.321Z,98692.63
2022-08-25T00:12:26.848Z,98690.66
2022-08-25T00:14:53.359Z,98690.38
2022-08-25T00:17:19.845Z,98692.09
2022-08-25T00:19:46.335Z,98689.81
2022-08-25T00:22:12.930Z,98693.69
2022-08-25T00:24:39.567Z,98688.94
2022-08-25T00:27:06.371Z,98681.94
2022-08-25T00:29:34.017Z,98679.56
2022-08-25T00:32:01.399Z,98682.78
2022-08-25T00:34:34.448Z,98683.63
2022-08-25T00:37:03.689Z,98688.81
2022-08-25T00:39:30.489Z,98689.13
2022-08-25T00:41:57.925Z,98682.94
2022-08-25T00:44:28.559Z,98682.50
2022-08-25T00:47:00.941Z,98681.38
2022-08-25T00:49:54.147Z,98686.34
2022-08-25T00:52:27.093Z,98683.13
2022-08-25T00:55:08.140Z,98688.75
2022-08-25T00:57:43.198Z,98690.94
2022-08-25T01:00:22.542Z,98692.22
2022-08-25T01:02:49.749Z,98689.84
2022-08-25T01:05:19.223Z,98687.47
2022-08-25T01:07:46.676Z,98688.09
2022-08-25T01:10:13.739Z,98687.38
2022-08-25T01:12:41.312Z,98683.72
2022-08-25T01:15:11.763Z,98681.38
2022-08-25T01:17:54.040Z,98678.28
2022-08-25T01:20:29.470Z,98695.25
2022-08-25T01:22:57.650Z,98683.94
2022-08-25T01:25:57.118Z,98696.25
2022-08-25T01:28:23.703Z,98697.38
2022-08-25T01:30:50.574Z,98696.25
2022-08-25T01:33:17.261Z,98688.66
2022-08-25T01:35:44.095Z,98687.97
2022-08-25T01:38:11.772Z,98693.03
2022-08-25T01:40:40.171Z,98682.41
2022-08-25T01:43:14.729Z,98679.47
2022-08-25T01:45:47.609Z,98680.28
2022-08-25T01:48:16.922Z,98670.47
2022-08-25T01:50:44.086Z,98682.56
2022-08-25T01:53:27.718Z,98683.13
2022-08-25T01:56:05.563Z,98683.63
2022-08-25T01:58:41.680Z,98687.53
2022-08-25T02:01:15.727Z,98690.88
2022-08-25T02:03:44.780Z,98689.34
2022-08-25T02:06:17.836Z,98682.63
2022-08-25T02:08:44.711Z,98684.03
2022-08-25T02:11:14.213Z,98681.78
2022-08-25T02:13:42.202Z,98687.38
2022-08-25T02:16:14.716Z,98679.00
2022-08-25T02:18:41.296Z,98688.13
2022-08-25T02:21:07.778Z,98695.13
2022-08-25T02:23:34.274Z,98684.22
2022-08-25T02:26:00.771Z,98694.16
2022-08-25T02:28:27.279Z,98689.00
2022-08-25T02:30:58.563Z,98685.94
2022-08-25T02:33:28.080Z,98688.56
2022-08-25T02:35:59.284Z,98682.97
2022-08-25T02:38:27.870Z,98685.63
2022-08-25T02:40:56.987Z,98682.13
2022-08-25T02:43:24.824Z,98686.63
2022-08-25T02:45:53.254Z,98688.88
2022-08-25T02:48:19.886Z,98678.94
2022-08-25T02:50:48.779Z,98683.84
2022-08-25T02:53:15.319Z,98690.56
2022-08-25T02:55:41.833Z,98691.09
2022-08-25T02:58:09.051Z,98682.13
2022-08-25T03:00:36.871Z,98684.53
2022-08-25T03:03:05.923Z,98688.56
2022-08-25T03:05:33.695Z,98681.31
2022-08-25T03:08:00.623Z,98668.72
2022-08-25T03:10:27.306Z,98673.91
2022-08-25T03:12:53.912Z,98667.31
2022-08-25T03:15:20.737Z,98662.25
2022-08-25T03:17:51.043Z,98663.41
2022-08-25T03:20:19.486Z,98651.94
2022-08-25T03:22:46.044Z,98648.13
2022-08-25T03:25:31.727Z,98655.00
2022-08-25T03:27:58.339Z,98647.72
2022-08-25T03:30:26.121Z,98645.47
2022-08-25T03:32:53.153Z,98641.56
2022-08-25T03:35:19.911Z,98636.50
2022-08-25T03:37:46.863Z,98642.94
2022-08-25T03:40:17.438Z,98631.47
2022-08-25T03:42:46.055Z,98637.06
2022-08-25T03:45:16.430Z,98635.53
2022-08-25T03:47:48.033Z,98634.50
2022-08-25T03:50:17.720Z,98629.78
2022-08-25T03:52:45.275Z,98632.28
2022-08-25T03:55:14.808Z,98630.31
2022-08-25T03:57:41.575Z,98629.63
2022-08-25T04:00:12.135Z,98635.94
2022-08-25T04:02:40.174Z,98628.91
2022-08-25T04:05:08.674Z,98637.31
2022-08-25T04:07:35.459Z,98639.28
2022-08-25T04:10:02.145Z,98636.63
2022-08-25T04:12:28.655Z,98641.22
2022-08-25T04:14:55.890Z,98639.13
2022-08-25T04:17:22.839Z,98633.94
2022-08-25T04:19:50.009Z,98635.84
2022-08-25T04:22:17.269Z,98628.63
2022-08-25T04:24:43.866Z,98631.00
2022-08-25T04:27:10.427Z,98626.69
2022-08-25T04:29:36.935Z,98625.13
2022-08-25T04:32:03.955Z,98626.25
2022-08-25T04:34:31.637Z,98626.38
2022-08-25T04:37:05.381Z,98622.19
2022-08-25T04:39:32.325Z,98624.59
2022-08-25T04:42:00.361Z,98618.72
2022-08-25T04:44:27.203Z,98623.16
2022-08-25T04:46:53.919Z,98622.00
2022-08-25T04:49:20.466Z,98623.16
2022-08-25T04:51:47.799Z,98624.94
2022-08-25T04:54:17.080Z,98617.69
2022-08-25T04:56:44.497Z,98616.69
2022-08-25T04:59:15.695Z,98624.41
2022-08-25T05:01:46.163Z,98627.47
2022-08-25T05:04:28.534Z,98622.16
2022-08-25T05:06:56.885Z,98624.66
2022-08-25T05:09:23.667Z,98626.91
2022-08-25T05:11:51.807Z,98618.56
2022-08-25T05:14:21.619Z,98621.75
2022-08-25T05:16:52.308Z,98628.31
2022-08-25T05:19:19.386Z,98629.19
2022-08-25T05:21:45.994Z,98625.81
2022-08-25T05:24:12.511Z,98622.72
2022-08-25T05:26:39.665Z,98622.75
2022-08-25T05:29:06.895Z,98605.84
2022-08-25T05:31:36.407Z,98616.19
2022-08-25T05:34:08.018Z,98619.69
2022-08-25T05:36:35.379Z,98619.16
2022-08-25T05:39:02.643Z,98613.25
2022-08-25T05:41:31.364Z,98616.34
2022-08-25T05:43:58.176Z,98617.19
2022-08-25T05:46:25.230Z,98617.03
2022-08-25T05:48:52.138Z,98624.19
2022-08-25T05:51:19.874Z,98616.34
2022-08-25T05:53:50.092Z,98610.88
2022-08-25T05:56:17.218Z,98604.72
2022-08-25T05:58:44.632Z,98598.19
2022-08-25T06:01:40.060Z,98603.50
2022-08-25T06:04:10.055Z,98598.19
2022-08-25T06:06:36.634Z,98598.47
2022-08-25T06:09:05.136Z,98607.13
2022-08-25T06:11:31.688Z,98598.44
2022-08-25T06:13:58.263Z,98601.50
2022-08-25T06:16:24.873Z,98603.03
2022-08-25T06:18:51.411Z,98595.75
2022-08-25T06:21:18.589Z,98597.97
2022-08-25T06:23:45.189Z,98598.81
2022-08-25T06:26:20.802Z,98596.66
2022-08-25T06:28:50.771Z,98591.81
2022-08-25T06:31:18.286Z,98597.28
2022-08-25T06:33:45.355Z,98596.72
2022-08-25T06:36:12.691Z,98601.84
2022-08-25T06:38:39.270Z,98596.91
2022-08-25T06:41:07.688Z,98602.31
2022-08-25T06:43:34.963Z,98599.16
2022-08-25T06:46:19.132Z,98602.28
2022-08-25T06:48:45.822Z,98595.75
2022-08-25T06:51:15.334Z,98592.19
2022-08-25T06:53:44.591Z,98593.69
2022-08-25T06:56:12.187Z,98591.44
2022-08-25T06:58:39.758Z,98597.91
2022-08-25T07:01:22.826Z,98599.34
2022-08-25T07:03:59.699Z,98599.09
2022-08-25T07:06:29.307Z,98590.34
2022-08-25T07:08:55.832Z,98588.16
2022-08-25T07:11:22.555Z,98591.69
2022-08-25T07:13:50.759Z,98593.09
2022-08-25T07:16:20.419Z,98599.69
2022-08-25T07:18:48.855Z,98587.69
2022-08-25T07:21:17.384Z,98590.22
2022-08-25T07:23:44.620Z,98590.25
2022-08-25T07:26:36.720Z,98590.34
2022-08-25T07:29:31.937Z,98585.03
2022-08-25T07:32:01.388Z,98593.06
2022-08-25T07:34:52.619Z,98594.09
2022-08-25T07:40:24.415Z,98591.41
2022-08-25T07:42:55.076Z,98594.41
2022-08-25T07:45:30.167Z,98589.09
2022-08-25T07:48:06.027Z,98586.59
2022-08-25T07:50:35.477Z,98594.47
2022-08-25T07:53:02.198Z,98590.44
2022-08-25T07:55:30.415Z,98597.44
2022-08-25T07:57:57.922Z,98594.25
2022-08-25T08:00:32.057Z,98592.38
2022-08-25T08:03:00.831Z,98592.50
2022-08-25T08:05:30.514Z,98589.34
2022-08-25T08:07:57.787Z,98584.78
2022-08-25T08:10:47.808Z,98583.06
2022-08-25T08:13:16.478Z,98582.66
2022-08-25T08:15:45.587Z,98579.97
2022-08-25T08:18:12.160Z,98573.88
2022-08-25T08:20:42.953Z,98566.47
2022-08-25T08:23:11.398Z,98561.53
2022-08-25T08:25:38.098Z,98569.88
2022-08-25T08:28:04.647Z,98568.03
2022-08-25T08:30:34.248Z,98565.16
2022-08-25T08:33:11.322Z,98564.06
2022-08-25T08:35:39.704Z,98567.53
2022-08-25T08:38:14.552Z,98562.81
2022-08-25T08:41:27.838Z,98568.47
2022-08-25T08:44:10.769Z,98565.56
2022-08-25T08:46:57.741Z,98562.25
2022-08-25T08:50:07.701Z,98556.59
2022-08-25T08:52:44.510Z,98554.53
2022-08-25T08:55:32.182Z,98552.78
2022-08-25T08:58:05.831Z,98545.47
2022-08-25T09:00:40.422Z,98551.88
2022-08-25T09:03:16.950Z,98545.38
2022-08-25T09:05:52.703Z,98548.91
2022-08-25T09:08:20.526Z,98552.50
2022-08-25T09:11:22.685Z,98545.75
2022-08-25T09:14:38.448Z,98545.94
2022-08-25T09:17:41.200Z,98529.81
2022-08-25T09:20:32.063Z,98528.31
2022-08-25T09:23:29.968Z,98524.03
2022-08-25T09:26:28.328Z,98531.25
2022-08-25T09:29:06.322Z,98523.03
2022-08-25T09:31:43.291Z,98527.66
2022-08-25T09:34:20.692Z,98524.00
2022-08-25T09:36:50.676Z,98514.25
2022-08-25T09:39:17.915Z,98512.63
2022-08-25T09:41:52.149Z,98517.25
2022-08-25T09:44:31.396Z,98509.81
2022-08-25T09:47:15.232Z,98504.47
2022-08-25T09:49:56.278Z,98487.97
2022-08-25T09:52:28.586Z,98492.16
2022-08-25T09:55:00.182Z,98485.41
2022-08-25T09:57:33.838Z,98489.38
2022-08-25T10:00:34.118Z,98486.50
2022-08-25T10:03:25.052Z,98479.19
2022-08-25T10:06:13.349Z,98470.91
2022-08-25T10:08:56.123Z,98461.88
2022-08-25T10:11:48.284Z,98458.78
2022-08-25T10:14:38.806Z,98466.09
2022-08-25T10:17:16.873Z,98459.47
2022-08-25T10:19:44.024Z,98458.28
2022-08-25T10:22:24.296Z,98452.75
2022-08-25T10:24:51.157Z,98449.63
2022-08-25T10:27:28.700Z,98447.38
2022-08-25T10:30:17.402Z,98438.06
2022-08-25T10:33:17.604Z,98433.72
2022-08-25T10:36:28.725Z,98425.22
2022-08-25T10:39:01.602Z,98435.59
2022-08-25T10:41:55.719Z,98434.16
2022-08-25T10:45:12.374Z,98429.81
2022-08-25T10:48:00.311Z,98427.75
2022-08-25T10:50:59.008Z,98426.50
2022-08-25T10:53:55.191Z,98426.53
2022-08-25T10:56:28.819Z,98423.59
2022-08-25T10:59:16.445Z,98416.97
2022-08-25T11:01:56.811Z,98421.09
2022-08-25T11:04:37.195Z,98415.66
2022-08-25T11:07:16.581Z,98419.38
2022-08-25T11:09:52.132Z,98407.69
2022-08-25T11:12:34.854Z,98407.06
2022-08-25T11:15:20.055Z,98414.53
2022-08-25T11:17:57.021Z,98411.41
2022-08-25T11:20:33.531Z,98398.00
2022-08-25T11:23:41.620Z,98391.09
2022-08-25T11:26:17.180Z,98393.31
2022-08-25T11:29:21.756Z,98397.44
2022-08-25T11:31:54.158Z,98399.84
2022-08-25T11:34:22.571Z,98403.50
2022-08-25T11:37:07.799Z,98397.44
2022-08-25T11:39:51.915Z,98398.69
2022-08-25T11:42:43.065Z,98389.47
2022-08-25T11:45:39.862Z,98394.63
2022-08-25T11:48:31.367Z,98391.22
2022-08-25T11:51:33.757Z,98387.41
2022-08-25T11:54:44.648Z,98394.41
2022-08-25T11:57:25.699Z,98384.84
2022-08-25T11:59:53.299Z,98376.91
2022-08-25T12:02:51.133Z,98373.88
2022-08-25T12:05:21.893Z,98375.38
2022-08-25T12:07:48.839Z,98381.56
2022-08-25T12:10:54.762Z,98377.50
2022-08-25T12:13:45.631Z,98392.16
2022-08-25T12:16:32.725Z,98382.41
2022-08-25T12:19:47.410Z,98374.41
2022-08-25T12:22:15.714Z,98374.09
2022-08-25T12:24:47.190Z,98373.31
2022-08-25T12:27:26.977Z,98368.09
2022-08-25T12:30:16.129Z,98368.09
2022-08-25T12:33:05.402Z,98370.22
2022-08-25T12:35:37.499Z,98363.75
2022-08-25T12:38:15.615Z,98367.66
2022-08-25T12:40:42.958Z,98366.59
2022-08-25T12:43:19.692Z,98365.41
2022-08-25T12:45:48.291Z,98367.84
2022-08-25T12:48:26.882Z,98360.53
2022-08-25T12:51:05.187Z,98359.91
2022-08-25T12:53:54.336Z,98350.66
2022-08-25T12:56:28.854Z,98353.94
2022-08-25T12:59:02.136Z,98354.13
2022-08-25T13:01:59.953Z,98351.09
2022-08-25T13:05:19.265Z,98358.78
2022-08-25T13:08:24.805Z,98354.50
2022-08-25T13:11:14.223Z,98346.22
2022-08-25T13:14:17.915Z,98350.56
2022-08-25T13:17:10.866Z,98342.47
2022-08-25T13:19:38.291Z,98337.41
2022-08-25T13:22:21.239Z,98339.94
2022-08-25T13:24:50.784Z,98341.44
2022-08-25T13:27:29.969Z,98337.06
2022-08-25T13:29:59.769Z,98326.22
2022-08-25T13:32:35.732Z,98327.28
2022-08-25T13:35:21.013Z,98321.72
2022-08-25T13:37:48.623Z,98319.69
2022-08-25T13:40:33.598Z,98312.97
2022-08-25T13:43:09.221Z,98317.75
2022-08-25T13:45:45.917Z,98307.53
2022-08-25T13:48:31.143Z,98304.97
2022-08-25T13:51:31.384Z,98301.13
2022-08-25T13:54:42.159Z,98298.25
2022-08-25T13:57:22.231Z,98302.22
2022-08-25T13:59:58.278Z,98300.28
2022-08-25T14:02:49.941Z,98296.66
2022-08-25T14:05:35.998Z,98289.69
2022-08-25T14:08:16.236Z,98294.38
2022-08-25T14:11:14.561Z,98295.47
2022-08-25T14:13:45.267Z,98292.34
2022-08-25T14:16:23.409Z,98287.97
2022-08-25T14:18:58.824Z,98291.91
2022-08-25T14:21:29.820Z,98290.44
2022-08-25T14:23:57.450Z,98286.16
2022-08-25T14:26:24.899Z,98280.44
2022-08-25T14:28:53.402Z,98285.41
2022-08-25T14:31:29.967Z,98277.06
2022-08-25T14:34:13.485Z,98274.34
2022-08-25T14:36:40.198Z,98261.75
2022-08-25T14:39:08.913Z,98270.00
2022-08-25T14:41:38.711Z,98259.69
2022-08-25T14:44:05.799Z,98245.97
2022-08-25T14:46:37.518Z,98258.75
2022-08-25T14:49:09.956Z,98262.19
2022-08-25T14:51:41.211Z,98257.31
2022-08-25T14:54:14.856Z,98255.94
2022-08-25T14:56:43.239Z,98244.50
2022-08-25T14:59:10.019Z,98250.22
2022-08-25T15:01:36.719Z,98253.06
2022-08-25T15:04:13.006Z,98251.78
2022-08-25T15:06:43.856Z,98247.41
2022-08-25T15:09:16.277Z,98251.94
2022-08-25T15:11:50.687Z,98245.22
2022-08-25T15:14:28.569Z,98248.81
2022-08-25T15:17:01.224Z,98244.75
2022-08-25T15:19:28.706Z,98238.88
2022-08-25T15:21:57.970Z,98248.88
2022-08-25T15:24:28.562Z,98241.22
2022-08-25T15:27:00.513Z,98241.06
2022-08-25T15:29:31.595Z,98237.06
2022-08-25T15:32:00.380Z,98233.47
2022-08-25T15:34:28.022Z,98238.88
2022-08-25T15:36:56.245Z,98241.59
2022-08-25T15:39:22.750Z,98239.75
2022-08-25T15:41:52.115Z,98231.44
2022-08-25T15:44:19.137Z,98231.66
2022-08-25T15:46:47.154Z,98226.91
2022-08-25T15:49:23.633Z,98231.81
2022-08-25T15:51:53.051Z,98233.31
2022-08-25T15:54:22.914Z,98224.59
2022-08-25T15:56:49.602Z,98227.91
2022-08-25T15:59:16.641Z,98229.56
2022-08-25T16:01:46.469Z,98224.50
2022-08-25T16:04:14.321Z,98229.09
2022-08-25T16:06:40.955Z,98230.16
2022-08-25T16:09:08.182Z,98235.34
2022-08-25T16:11:35.328Z,98230.06
2022-08-25T16:14:05.979Z,98228.56
2022-08-25T16:16:33.601Z,98218.34
2022-08-25T16:19:01.362Z,98224.13
2022-08-25T16:21:33.375Z,98227.44
2022-08-25T16:24:07.749Z,98216.75
2022-08-25T16:26:48.237Z,98213.06
2022-08-25T16:29:15.583Z,98219.69
2022-08-25T16:31:44.450Z,98212.56
2022-08-25T16:34:11.222Z,98211.50
2022-08-25T16:36:38.920Z,98211.34
2022-08-25T16:39:09.848Z,98206.38
2022-08-25T16:41:37.277Z,98211.50
2022-08-25T16:44:11.086Z,98212.88
2022-08-25T16:46:40.740Z,98213.06
2022-08-25T16:49:10.310Z,98209.78
2022-08-25T16:51:38.980Z,98215.19
2022-08-25T16:54:27.756Z,98206.69
2022-08-25T16:56:55.478Z,98209.84
2022-08-25T16:59:23.547Z,98209.25
2022-08-25T17:01:51.348Z,98207.59
2022-08-25T17:04:18.091Z,98205.56
2022-08-25T17:06:49.588Z,98207.31
2022-08-25T17:09:23.968Z,98209.00
2022-08-25T17:11:54.113Z,98210.31
2022-08-25T17:14:21.732Z,98209.66
2022-08-25T17:16:48.643Z,98207.78
2022-08-25T17:19:18.978Z,98216.56
2022-08-25T17:21:46.625Z,98213.03
2022-08-25T17:24:14.194Z,98210.56
2022-08-25T17:26:44.489Z,98213.09
2022-08-25T17:29:11.863Z,98209.44
2022-08-25T17:31:39.997Z,98215.50
2022-08-25T17:34:16.168Z,98214.13
2022-08-25T17:36:43.179Z,98214.16
2022-08-25T17:39:14.066Z,98211.22
2022-08-25T17:41:43.818Z,98218.72
2022-08-25T17:44:10.990Z,98216.84
2022-08-25T17:46:39.959Z,98216.69
2022-08-25T17:49:11.771Z,98216.34
2022-08-25T17:51:38.325Z,98221.81
2022-08-25T17:54:05.163Z,98218.09
2022-08-25T17:56:33.332Z,98217.31
2022-08-25T17:58:59.881Z,98217.81
2022-08-25T18:01:33.298Z,98219.94
2022-08-25T18:04:00.930Z,98222.00
2022-08-25T18:06:30.888Z,98230.34
2022-08-25T18:08:59.895Z,98226.50
2022-08-25T18:11:28.679Z,98225.69
2022-08-25T18:13:56.083Z,98232.97
2022-08-25T18:16:24.045Z,98230.94
2022-08-25T18:18:53.554Z,98238.44
2022-08-25T18:21:22.342Z,98236.78
2022-08-25T18:23:49.604Z,98237.22
2022-08-25T18:26:16.543Z,98230.38
2022-08-25T18:28:43.896Z,98238.28
2022-08-25T18:31:12.184Z,98244.09
2022-08-25T18:33:44.372Z,98239.75
2022-08-25T18:36:12.068Z,98242.22
2022-08-25T18:38:58.394Z,98239.31
2022-08-25T18:41:27.675Z,98237.00
2022-08-25T18:43:54.387Z,98241.94
2022-08-25T18:46:22.634Z,98244.19
2022-08-25T18:48:52.757Z,98250.75
2022-08-25T18:51:23.254Z,98247.63
2022-08-25T18:53:54.470Z,98249.69
2022-08-25T18:56:26.057Z,98246.75
2022-08-25T18:58:52.709Z,98251.00
2022-08-25T19:01:19.806Z,98244.97
2022-08-25T19:03:46.625Z,98256.53
2022-08-25T19:06:14.744Z,98252.69
2022-08-25T19:08:42.179Z,98254.88
2022-08-25T19:11:09.822Z,98250.47
2022-08-25T19:13:37.519Z,98244.88
2022-08-25T19:16:30.874Z,98254.06
2022-08-25T19:18:57.591Z,98254.66
2022-08-25T19:21:25.362Z,98255.00
2022-08-25T19:23:52.997Z,98261.34
2022-08-25T19:26:20.180Z,98262.75
2022-08-25T19:28:49.417Z,98262.09
2022-08-25T19:31:27.311Z,98263.53
2022-08-25T19:33:56.001Z,98264.31
2022-08-25T19:36:28.542Z,98259.56
2022-08-25T19:38:58.548Z,98259.44
2022-08-25T19:41:27.315Z,98269.91
2022-08-25T19:43:57.267Z,98264.81
2022-08-25T19:46:35.459Z,98267.72
2022-08-25T19:49:27.165Z,98263.84
2022-08-25T19:51:58.266Z,98265.09
2022-08-25T19:54:33.204Z,98267.84
2022-08-25T19:57:01.458Z,98265.25
2022-08-25T19:59:40.648Z,98268.13
2022-08-25T20:02:16.095Z,98275.31
2022-08-25T20:04:52.161Z,98271.81
2022-08-25T20:07:23.701Z,98275.16
2022-08-25T20:09:52.989Z,98276.91
2022-08-25T20:12:21.243Z,98277.66
2022-08-25T20:14:50.320Z,98272.66
2022-08-25T20:17:23.896Z,98276.53
2022-08-25T20:19:55.717Z,98277.00
2022-08-25T20:22:26.344Z,98276.69
2022-08-25T20:24:57.968Z,98287.13
2022-08-25T20:27:34.116Z,98278.16
2022-08-25T20:30:02.627Z,98283.13
2022-08-25T20:32:31.363Z,98287.44
2022-08-25T20:34:57.990Z,98289.50
2022-08-25T20:37:25.687Z,98286.34
2022-08-25T20:39:52.700Z,98286.34
2022-08-25T20:42:19.445Z,98284.47
2022-08-25T20:44:46.979Z,98288.59
2022-08-25T20:47:14.824Z,98289.84
2022-08-25T20:49:45.163Z,98292.84
2022-08-25T20:52:14.255Z,98290.03
2022-08-25T20:54:43.959Z,98290.44
2022-08-25T20:57:17.999Z,98294.72
2022-08-25T20:59:44.610Z,98290.41
2022-08-25T21:02:13.878Z,98293.63
2022-08-25T21:04:48.907Z,98287.13
2022-08-25T21:07:17.184Z,98284.31
2022-08-25T21:09:43.725Z,98281.16
2022-08-25T21:12:10.223Z,98291.66
2022-08-25T21:14:41.300Z,98285.81
2022-08-25T21:17:11.289Z,98294.38
2022-08-25T21:19:39.831Z,98292.22
2022-08-25T21:22:07.503Z,98287.56
2022-08-25T21:24:34.486Z,98283.56
2022-08-25T21:27:03.614Z,98282.56
2022-08-25T21:29:32.549Z,98282.19
2022-08-25T21:32:00.017Z,98283.41
2022-08-25T21:34:28.262Z,98291.94
2022-08-25T21:37:00.048Z,98282.75
2022-08-25T21:39:29.461Z,98290.78
2022-08-25T21:41:58.432Z,98289.44
2022-08-25T21:44:26.681Z,98288.63
2022-08-25T21:46:54.244Z,98285.28
2022-08-25T21:49:22.067Z,98278.94
2022-08-25T21:51:59.165Z,98281.81
2022-08-25T21:54:28.751Z,98284.31
2022-08-25T21:56:59.667Z,98289.31
2022-08-25T21:59:36.182Z,98279.31
2022-08-25T22:02:10.237Z,98291.19
2022-08-25T22:04:39.341Z,98296.38
2022-08-25T22:07:08.262Z,98300.50
2022-08-25T22:09:35.883Z,98292.00
2022-08-25T22:12:04.621Z,98294.66
2022-08-25T22:14:32.332Z,98288.16
2022-08-25T22:16:59.575Z,98290.00
2022-08-25T22:19:27.145Z,98291.03
2022-08-25T22:21:54.402Z,98291.84
2022-08-25T22:24:21.543Z,98294.69
2022-08-25T22:26:49.187Z,98296.13
2022-08-25T22:29:23.257Z,98304.13
2022-08-25T22:31:52.844Z,98301.75
2022-08-25T22:34:19.594Z,98299.28
2022-08-25T22:36:59.690Z,98293.59
2022-08-25T22:39:26.925Z,98298.28
2022-08-25T22:41:53.803Z,98298.78
2022-08-25T22:44:20.410Z,98302.75
2022-08-25T22:46:46.947Z,98294.88
2022-08-25T22:49:14.023Z,98297.88
2022-08-25T22:51:40.946Z,98298.22
2022-08-25T22:54:09.674Z,98288.50
2022-08-25T22:56:37.304Z,98292.16
2022-08-25T22:59:10.953Z,98291.47
2022-08-25T23:01:39.614Z,98285.69
2022-08-25T23:04:07.047Z,98289.03
2022-08-25T23:06:34.471Z,98287.69
2022-08-25T23:09:03.738Z,98282.34
2022-08-25T23:11:31.319Z,98286.94
2022-08-25T23:14:05.517Z,98284.44
2022-08-25T23:16:32.827Z,98280.72
2022-08-25T23:19:00.382Z,98285.81
2022-08-25T23:21:45.995Z,98287.31
2022-08-25T23:24:29.502Z,98289.56
2022-08-25T23:27:01.212Z,98286.88
2022-08-25T23:29:30.935Z,98288.84
2022-08-25T23:31:58.628Z,98289.16
2022-08-25T23:34:26.497Z,98284.13
2022-08-25T23:36:53.602Z,98286.13
2022-08-25T23:39:21.639Z,98283.50
2022-08-25T23:41:48.766Z,98275.72
2022-08-25T23:44:17.307Z,98278.44
2022-08-25T23:46:45.092Z,98272.94
2022-08-25T23:49:12.358Z,98266.25
2022-08-25T23:51:41.091Z,98264.56
2022-08-25T23:54:11.601Z,98266.53
2022-08-25T23:56:44.587Z,98261.88
2022-08-25T23:59:18.191Z,98270.72
